createdAt,value
2024-02-01T00:00:36.567Z,100902.23
2024-02-01T00:03:04.137Z,100901.70
2024-02-01T00:05:31.083Z,100901.05
2024-02-01T00:07:58.337Z,100892.52
2024-02-01T00:10:25.062Z,100886.24
2024-02-01T00:12:51.779Z,100878.48
2024-02-01T00:15:18.575Z,100876.64
2024-02-01T00:17:45.859Z,100871.86
2024-02-01T00:20:13.821Z,100871.04
2024-02-01T00:22:40.559Z,100874.66
2024-02-01T00:25:07.642Z,100874.98
2024-02-01T00:27:34.353Z,100867.04
2024-02-01T00:30:02.353Z,100862.88
2024-02-01T00:32:32.290Z,100855.48
2024-02-01T00:34:59.189Z,100851.58
2024-02-01T00:37:26.181Z,100846.91
2024-02-01T00:39:54.839Z,100842.46
2024-02-01T00:42:23.932Z,100835.48
2024-02-01T00:44:52.769Z,100829.70
2024-02-01T00:47:22.305Z,100823.34
2024-02-01T00:49:51.838Z,100822.04
2024-02-01T00:52:21.833Z,100816.91
2024-02-01T00:54:50.699Z,100808.45
2024-02-01T00:57:20.863Z,100800.70
2024-02-01T00:59:49.917Z,100794.14
2024-02-01T01:02:18.707Z,100784.45
2024-02-01T01:04:47.380Z,100775.90
2024-02-01T01:07:16.384Z,100769.60
2024-02-01T01:09:45.830Z,100768.41
2024-02-01T01:12:14.890Z,100766.56
2024-02-01T01:14:44.498Z,100758.38
2024-02-01T01:17:13.850Z,100754.31
2024-02-01T01:19:42.811Z,100751.27
2024-02-01T01:22:12.483Z,100739.68
2024-02-01T01:24:40.868Z,100731.23
2024-02-01T01:27:10.192Z,100725.66
2024-02-01T01:29:39.533Z,100717.48
2024-02-01T01:32:08.719Z,100708.52
2024-02-01T01:34:38.267Z,100697.08
2024-02-01T01:37:06.781Z,100686.48
2024-02-01T01:46:34.911Z,100676.10
2024-02-01T01:49:01.738Z,100673.45
2024-02-01T01:51:28.526Z,100678.48
2024-02-01T01:53:57.458Z,100682.61
2024-02-01T01:56:24.659Z,100679.00
2024-02-01T01:58:52.516Z,100672.04
2024-02-01T02:01:19.933Z,100667.30
2024-02-01T02:03:49.113Z,100662.89
2024-02-01T02:06:16.086Z,100660.87
2024-02-01T02:08:42.832Z,100662.22
2024-02-01T02:11:09.541Z,100658.52
2024-02-01T02:13:36.591Z,100660.72
2024-02-01T02:16:03.542Z,100661.46
2024-02-01T02:18:30.254Z,100657.38
2024-02-01T02:20:57.914Z,100654.34
2024-02-01T02:23:24.685Z,100656.73
2024-02-01T02:25:51.306Z,100659.16
2024-02-01T02:28:17.962Z,100654.01
2024-02-01T02:30:44.791Z,100652.23
2024-02-01T02:33:11.645Z,100645.93
2024-02-01T02:35:38.488Z,100640.41
2024-02-01T02:38:05.498Z,100638.23
2024-02-01T02:40:32.182Z,100638.98
2024-02-01T02:42:58.807Z,100627.05
2024-02-01T02:45:25.495Z,100626.13
2024-02-01T02:47:52.337Z,100628.17
2024-02-01T02:50:19.166Z,100630.81
2024-02-01T02:52:47.811Z,100629.79
2024-02-01T02:55:14.513Z,100625.17
2024-02-01T02:57:41.152Z,100620.23
2024-02-01T03:00:11.470Z,100612.90
2024-02-01T03:02:39.149Z,100601.95
2024-02-01T03:05:07.650Z,100598.23
2024-02-01T03:07:34.688Z,100588.60
2024-02-01T03:10:05.805Z,100576.89
2024-02-01T03:12:32.739Z,100578.14
2024-02-01T03:15:00.262Z,100574.95
2024-02-01T03:17:35.497Z,100572.23
2024-02-01T03:20:02.354Z,100562.20
2024-02-01T03:22:28.981Z,100552.36
2024-02-01T03:25:01.946Z,100551.86
2024-02-01T03:27:29.223Z,100549.21
2024-02-01T03:30:00.863Z,100558.91
2024-02-01T03:32:31.832Z,100545.77
2024-02-01T03:34:59.120Z,100534.13
2024-02-01T03:37:28.811Z,100532.10
2024-02-01T03:39:55.633Z,100533.37
2024-02-01T03:42:23.646Z,100532.27
2024-02-01T03:44:50.460Z,100525.80
2024-02-01T03:47:19.940Z,100526.36
2024-02-01T03:49:46.603Z,100528.11
2024-02-01T03:52:13.288Z,100529.04
2024-02-01T03:54:40.731Z,100521.70
2024-02-01T03:57:08.191Z,100523.11
2024-02-01T03:59:35.459Z,100517.79
2024-02-01T04:02:05.823Z,100518.84
2024-02-01T04:04:33.440Z,100516.27
2024-02-01T04:07:00.813Z,100516.14
2024-02-01T04:09:27.945Z,100512.91
2024-02-01T04:11:54.626Z,100512.90
2024-02-01T04:14:21.502Z,100507.07
2024-02-01T04:16:48.758Z,100507.56
2024-02-01T04:19:16.205Z,100505.05
2024-02-01T04:21:49.335Z,100500.97
2024-02-01T04:24:18.825Z,100490.80
2024-02-01T04:26:52.259Z,100485.19
2024-02-01T04:29:19.781Z,100468.44
2024-02-01T04:31:46.485Z,100463.52
2024-02-01T04:34:15.111Z,100456.20
2024-02-01T04:36:42.631Z,100450.27
2024-02-01T04:39:09.632Z,100452.83
2024-02-01T04:41:39.809Z,100452.48
2024-02-01T04:44:08.783Z,100451.13
2024-02-01T04:46:35.801Z,100450.36
2024-02-01T04:49:04.121Z,100450.77
2024-02-01T04:51:31.864Z,100448.63
2024-02-01T04:53:58.765Z,100448.35
2024-02-01T04:56:25.398Z,100452.61
2024-02-01T04:58:52.062Z,100441.98
2024-02-01T05:01:18.834Z,100440.60
2024-02-01T05:03:45.856Z,100431.36
2024-02-01T05:06:12.700Z,100422.66
2024-02-01T05:08:39.530Z,100419.00
2024-02-01T05:11:06.262Z,100416.05
2024-02-01T05:13:33.095Z,100412.76
2024-02-01T05:16:01.215Z,100403.48
2024-02-01T05:18:28.520Z,100400.97
2024-02-01T05:20:56.051Z,100396.55
2024-02-01T05:23:23.075Z,100390.70
2024-02-01T05:25:49.662Z,100384.51
2024-02-01T05:28:16.289Z,100383.36
2024-02-01T05:30:44.002Z,100382.45
2024-02-01T05:33:11.269Z,100382.23
2024-02-01T05:35:38.319Z,100375.92
2024-02-01T05:38:07.284Z,100370.45
2024-02-01T05:40:34.359Z,100358.18
2024-02-01T05:43:02.498Z,100360.82
2024-02-01T05:45:30.658Z,100355.97
2024-02-01T05:48:00.012Z,100354.02
2024-02-01T05:50:27.353Z,100356.20
2024-02-01T05:52:54.003Z,100358.96
2024-02-01T05:55:21.014Z,100358.95
2024-02-01T05:57:48.353Z,100354.82
2024-02-01T06:00:20.968Z,100351.10
2024-02-01T06:02:48.427Z,100343.91
2024-02-01T06:05:15.229Z,100344.71
2024-02-01T06:07:43.240Z,100350.64
2024-02-01T06:10:10.132Z,100357.37
2024-02-01T06:12:39.179Z,100354.30
2024-02-01T06:15:08.432Z,100349.84
2024-02-01T06:17:35.945Z,100355.14
2024-02-01T06:20:03.265Z,100350.23
2024-02-01T06:22:30.187Z,100345.41
2024-02-01T06:24:56.983Z,100348.94
2024-02-01T06:27:23.705Z,100349.82
2024-02-01T06:29:50.509Z,100354.33
2024-02-01T06:32:23.380Z,100352.98
2024-02-01T06:35:06.644Z,100352.23
2024-02-01T06:37:36.891Z,100347.52
2024-02-01T06:40:33.227Z,100347.15
2024-02-01T06:43:22.861Z,100340.53
2024-02-01T06:45:59.526Z,100336.91
2024-02-01T06:48:42.646Z,100336.10
2024-02-01T06:51:23.768Z,100334.14
2024-02-01T06:53:58.839Z,100336.14
2024-02-01T06:56:49.919Z,100335.77
2024-02-01T06:59:46.630Z,100336.30
2024-02-01T07:02:25.775Z,100338.67
2024-02-01T07:04:54.755Z,100335.25
2024-02-01T07:07:29.139Z,100332.33
2024-02-01T07:10:00.381Z,100330.63
2024-02-01T07:12:45.213Z,100327.00
2024-02-01T07:15:25.652Z,100328.79
2024-02-01T07:18:08.750Z,100329.00
2024-02-01T07:20:37.820Z,100323.66
2024-02-01T07:23:25.655Z,100317.05
2024-02-01T07:26:14.212Z,100317.77
2024-02-01T07:28:59.697Z,100308.63
2024-02-01T07:31:45.152Z,100311.89
2024-02-01T07:34:31.016Z,100311.77
2024-02-01T07:37:16.267Z,100301.27
2024-02-01T07:40:01.395Z,100303.15
2024-02-01T07:42:47.690Z,100300.94
2024-02-01T07:45:33.225Z,100299.95
2024-02-01T07:48:18.844Z,100295.09
2024-02-01T07:51:04.177Z,100289.27
2024-02-01T07:53:49.756Z,100284.70
2024-02-01T07:56:35.174Z,100285.94
2024-02-01T07:59:09.484Z,100284.43
2024-02-01T08:01:49.627Z,100280.52
2024-02-01T08:04:18.910Z,100283.32
2024-02-01T08:07:05.207Z,100285.54
2024-02-01T08:09:32.447Z,100279.63
2024-02-01T08:11:59.145Z,100284.63
2024-02-01T08:14:25.929Z,100284.83
2024-02-01T08:16:52.629Z,100278.42
2024-02-01T08:19:33.949Z,100285.94
2024-02-01T08:22:06.773Z,100284.27
2024-02-01T08:24:33.533Z,100281.45
2024-02-01T08:27:00.331Z,100287.10
2024-02-01T08:29:37.409Z,100287.48
2024-02-01T08:32:05.072Z,100283.52
2024-02-01T08:34:31.960Z,100294.27
2024-02-01T08:36:59.754Z,100294.40
2024-02-01T08:39:26.744Z,100293.27
2024-02-01T08:41:53.517Z,100300.77
2024-02-01T08:44:20.722Z,100298.91
2024-02-01T08:46:47.449Z,100295.87
2024-02-01T08:49:17.847Z,100301.52
2024-02-01T08:51:45.130Z,100295.77
2024-02-01T08:54:12.509Z,100299.30
2024-02-01T08:56:40.252Z,100295.56
2024-02-01T08:59:07.116Z,100298.86
2024-02-01T09:01:35.311Z,100292.53
2024-02-01T09:04:14.049Z,100294.70
2024-02-01T09:06:40.916Z,100294.04
2024-02-01T09:09:27.908Z,100294.39
2024-02-01T09:11:54.635Z,100289.79
2024-02-01T09:14:21.416Z,100288.45
2024-02-01T09:16:48.023Z,100284.29
2024-02-01T09:19:16.130Z,100291.33
2024-02-01T09:21:42.925Z,100291.80
2024-02-01T09:24:09.706Z,100289.52
2024-02-01T09:26:36.471Z,100291.67
2024-02-01T09:29:12.741Z,100295.52
2024-02-01T09:31:40.798Z,100295.73
2024-02-01T09:34:10.572Z,100290.67
2024-02-01T09:36:37.644Z,100293.83
2024-02-01T09:39:04.950Z,100290.63
2024-02-01T09:41:32.327Z,100293.66
2024-02-01T09:44:00.587Z,100293.85
2024-02-01T09:46:29.653Z,100292.61
2024-02-01T09:48:57.888Z,100284.31
2024-02-01T09:51:25.166Z,100288.45
2024-02-01T09:53:52.844Z,100286.38
2024-02-01T09:56:27.136Z,100291.91
2024-02-01T09:58:57.117Z,100293.63
2024-02-01T10:01:26.037Z,100294.89
2024-02-01T10:03:54.034Z,100288.34
2024-02-01T10:06:21.113Z,100286.39
2024-02-01T10:08:55.158Z,100291.79
2024-02-01T10:11:22.275Z,100279.98
2024-02-01T10:13:49.163Z,100283.66
2024-02-01T10:16:18.000Z,100280.41
2024-02-01T10:18:55.137Z,100274.20
2024-02-01T10:21:32.640Z,100277.27
2024-02-01T10:24:08.640Z,100280.17
2024-02-01T10:26:37.727Z,100278.86
2024-02-01T10:29:04.693Z,100272.91
2024-02-01T10:31:32.932Z,100270.63
2024-02-01T10:34:11.931Z,100265.09
2024-02-01T10:36:46.337Z,100272.77
2024-02-01T10:39:19.393Z,100264.70
2024-02-01T10:41:53.887Z,100263.63
2024-02-01T10:44:23.049Z,100263.15
2024-02-01T10:46:56.885Z,100255.61
2024-02-01T10:49:27.057Z,100254.42
2024-02-01T10:51:56.950Z,100251.80
2024-02-01T10:54:24.218Z,100252.60
2024-02-01T10:56:51.715Z,100257.52
2024-02-01T10:59:20.164Z,100249.17
2024-02-01T11:01:47.760Z,100247.64
2024-02-01T11:04:15.982Z,100247.58
2024-02-01T11:06:49.215Z,100246.92
2024-02-01T11:09:21.552Z,100254.58
2024-02-01T11:11:56.068Z,100250.64
2024-02-01T11:14:25.207Z,100235.64
2024-02-01T11:16:54.466Z,100240.67
2024-02-01T11:19:24.498Z,100237.19
2024-02-01T11:21:55.751Z,100236.81
2024-02-01T11:24:28.046Z,100237.10
2024-02-01T11:26:56.826Z,100240.25
2024-02-01T11:29:29.060Z,100230.82
2024-02-01T11:31:57.721Z,100226.44
2024-02-01T11:34:28.857Z,100231.27
2024-02-01T11:36:56.118Z,100225.61
2024-02-01T11:39:23.830Z,100233.33
2024-02-01T11:41:52.996Z,100233.39
2024-02-01T11:44:30.294Z,100231.39
2024-02-01T11:46:58.697Z,100232.23
2024-02-01T11:49:30.219Z,100217.75
2024-02-01T11:52:14.869Z,100226.67
2024-02-01T11:54:49.037Z,100225.94
2024-02-01T11:57:20.136Z,100231.15
2024-02-01T11:59:50.514Z,100234.74
2024-02-01T12:02:21.113Z,100232.27
2024-02-01T12:04:48.120Z,100225.52
2024-02-01T12:07:21.289Z,100229.56
2024-02-01T12:09:49.717Z,100225.73
2024-02-01T12:12:26.841Z,100230.16
2024-02-01T12:14:55.695Z,100230.45
2024-02-01T12:17:27.616Z,100229.81
2024-02-01T12:19:58.494Z,100226.43
2024-02-01T12:22:30.698Z,100227.70
2024-02-01T12:24:59.101Z,100230.48
2024-02-01T12:27:26.131Z,100226.91
2024-02-01T12:29:53.485Z,100227.17
2024-02-01T12:32:20.368Z,100226.61
2024-02-01T12:34:47.347Z,100223.50
2024-02-01T12:37:16.078Z,100225.67
2024-02-01T12:39:43.555Z,100231.66
2024-02-01T12:42:16.349Z,100232.02
2024-02-01T12:44:45.780Z,100239.81
2024-02-01T12:47:12.542Z,100245.56
2024-02-01T12:49:40.328Z,100240.23
2024-02-01T12:52:07.359Z,100241.83
2024-02-01T12:54:39.693Z,100244.73
2024-02-01T12:59:38.519Z,100242.23
2024-02-01T13:02:06.135Z,100247.55
2024-02-01T13:04:32.858Z,100240.20
2024-02-01T13:06:59.783Z,100240.16
2024-02-01T13:09:30.075Z,100240.32
2024-02-01T13:11:59.869Z,100243.15
2024-02-01T13:14:33.092Z,100241.29
2024-02-01T13:17:11.178Z,100242.92
2024-02-01T13:19:41.720Z,100237.38
2024-02-01T13:22:08.928Z,100233.91
2024-02-01T13:24:35.850Z,100233.11
2024-02-01T13:27:03.105Z,100232.23
2024-02-01T13:29:29.936Z,100233.98
2024-02-01T13:31:56.793Z,100236.20
2024-02-01T13:34:23.840Z,100240.58
2024-02-01T13:36:50.729Z,100231.76
2024-02-01T13:39:17.904Z,100226.14
2024-02-01T13:41:48.064Z,100230.89
2024-02-01T13:44:14.918Z,100225.64
2024-02-01T13:46:41.587Z,100231.65
2024-02-01T13:49:08.810Z,100230.86
2024-02-01T13:51:40.875Z,100228.08
2024-02-01T13:54:07.900Z,100228.92
2024-02-01T13:56:34.943Z,100230.30
2024-02-01T13:59:01.605Z,100232.52
2024-02-01T14:01:28.421Z,100227.16
2024-02-01T14:03:55.209Z,100228.17
2024-02-01T14:06:22.106Z,100223.38
2024-02-01T14:08:48.887Z,100225.03
2024-02-01T14:11:16.368Z,100231.96
2024-02-01T14:13:43.529Z,100229.04
2024-02-01T14:16:10.742Z,100228.46
2024-02-01T14:18:37.990Z,100239.13
2024-02-01T14:21:07.916Z,100235.70
2024-02-01T14:23:34.621Z,100240.84
2024-02-01T14:26:01.303Z,100234.38
2024-02-01T14:28:29.077Z,100224.95
2024-02-01T14:30:56.009Z,100227.73
2024-02-01T14:33:22.920Z,100226.31
2024-02-01T14:35:51.588Z,100228.63
2024-02-01T14:38:18.385Z,100225.91
2024-02-01T14:40:45.279Z,100236.27
2024-02-01T14:43:11.848Z,100227.13
2024-02-01T14:45:38.527Z,100232.11
2024-02-01T14:48:06.020Z,100240.09
2024-02-01T14:50:32.738Z,100242.16
2024-02-01T14:52:59.325Z,100241.95
2024-02-01T14:55:26.045Z,100249.02
2024-02-01T14:57:52.630Z,100238.98
2024-02-01T15:00:27.357Z,100244.75
2024-02-01T15:02:54.963Z,100243.86
2024-02-01T15:05:22.073Z,100245.98
2024-02-01T15:07:49.035Z,100240.89
2024-02-01T15:10:16.462Z,100246.58
2024-02-01T15:12:46.123Z,100247.77
2024-02-01T15:15:13.705Z,100242.39
2024-02-01T15:17:43.765Z,100232.91
2024-02-01T15:20:11.068Z,100244.84
2024-02-01T15:22:37.978Z,100253.22
2024-02-01T15:25:05.200Z,100262.66
2024-02-01T15:27:32.666Z,100264.16
2024-02-01T15:30:10.373Z,100262.98
2024-02-01T15:32:39.888Z,100268.64
2024-02-01T15:35:06.941Z,100270.81
2024-02-01T15:37:33.592Z,100279.41
2024-02-01T15:40:00.966Z,100277.79
2024-02-01T15:42:28.973Z,100274.84
2024-02-01T15:44:55.847Z,100278.05
2024-02-01T15:47:30.343Z,100279.90
2024-02-01T15:50:02.406Z,100277.93
2024-02-01T15:52:29.243Z,100279.54
2024-02-01T15:54:55.928Z,100285.24
2024-02-01T15:57:22.622Z,100281.56
2024-02-01T15:59:49.421Z,100282.24
2024-02-01T16:02:16.192Z,100291.27
2024-02-01T16:04:42.829Z,100285.83
2024-02-01T16:07:09.876Z,100285.39
2024-02-01T16:09:40.194Z,100287.89
2024-02-01T16:12:07.176Z,100301.38
2024-02-01T16:14:34.383Z,100303.05
2024-02-01T16:17:03.105Z,100298.55
2024-02-01T16:19:35.937Z,100301.84
2024-02-01T16:22:05.784Z,100305.52
2024-02-01T16:24:35.554Z,100303.67
2024-02-01T16:27:10.098Z,100295.02
2024-02-01T16:29:44.235Z,100289.71
2024-02-01T16:32:40.470Z,100287.29
2024-02-01T16:35:45.603Z,100279.42
2024-02-01T16:38:19.681Z,100283.55
2024-02-01T16:40:46.795Z,100288.48
2024-02-01T16:43:27.679Z,100291.30
2024-02-01T16:45:54.497Z,100291.05
2024-02-01T16:48:21.263Z,100290.73
2024-02-01T16:50:48.718Z,100294.56
2024-02-01T16:53:24.568Z,100293.06
2024-02-01T16:55:57.162Z,100288.77
2024-02-01T16:58:43.470Z,100293.02
2024-02-01T17:01:38.349Z,100304.77
2024-02-01T17:04:09.250Z,100288.90
2024-02-01T17:06:36.919Z,100288.56
2024-02-01T17:09:06.188Z,100287.69
2024-02-01T17:11:37.740Z,100285.06
2024-02-01T17:14:09.103Z,100294.91
2024-02-01T17:16:54.103Z,100290.16
2024-02-01T17:19:21.799Z,100287.03
2024-02-01T17:21:49.459Z,100285.65
2024-02-01T17:24:24.948Z,100293.78
2024-02-01T17:26:54.748Z,100293.91
2024-02-01T17:29:25.856Z,100289.24
2024-02-01T17:31:53.568Z,100298.48
2024-02-01T17:34:26.255Z,100304.42
2024-02-01T17:36:55.633Z,100306.19
2024-02-01T17:39:48.918Z,100306.62
2024-02-01T17:42:32.232Z,100305.10
2024-02-01T17:45:25.379Z,100302.85
2024-02-01T17:48:02.919Z,100315.70
2024-02-01T17:50:36.185Z,100314.33
2024-02-01T17:53:10.254Z,100313.65
2024-02-01T17:55:47.022Z,100314.40
2024-02-01T17:58:41.825Z,100309.77
2024-02-01T18:01:23.113Z,100292.29
2024-02-01T18:03:57.194Z,100295.13
2024-02-01T18:06:45.490Z,100289.30
2024-02-01T18:09:36.495Z,100291.40
2024-02-01T18:12:06.534Z,100290.77
2024-02-01T18:14:33.383Z,100291.07
2024-02-01T18:17:05.151Z,100292.04
2024-02-01T18:19:33.029Z,100290.80
2024-02-01T18:22:00.420Z,100282.64
2024-02-01T18:24:37.404Z,100290.39
2024-02-01T18:27:10.719Z,100279.69
2024-02-01T18:29:51.720Z,100288.09
2024-02-01T18:32:20.104Z,100286.15
2024-02-01T18:34:48.084Z,100290.20
2024-02-01T18:37:21.466Z,100294.02
2024-02-01T18:39:48.832Z,100297.11
2024-02-01T18:42:41.488Z,100289.67
2024-02-01T18:45:33.240Z,100282.63
2024-02-01T18:48:00.343Z,100286.76
2024-02-01T18:50:37.225Z,100293.13
2024-02-01T18:53:05.624Z,100295.02
2024-02-01T18:55:42.763Z,100303.30
2024-02-01T18:58:32.468Z,100310.86
2024-02-01T19:01:02.400Z,100297.78
2024-02-01T19:04:00.750Z,100303.54
2024-02-01T19:06:34.287Z,100286.39
2024-02-01T19:09:22.576Z,100292.15
2024-02-01T19:12:01.906Z,100292.63
2024-02-01T19:14:35.856Z,100296.52
2024-02-01T19:17:08.686Z,100303.73
2024-02-01T19:19:36.150Z,100294.91
2024-02-01T19:22:06.541Z,100301.70
2024-02-01T19:24:33.257Z,100302.41
2024-02-01T19:27:03.386Z,100304.28
2024-02-01T19:29:31.256Z,100297.95
2024-02-01T19:32:00.237Z,100305.32
2024-02-01T19:34:28.705Z,100308.72
2024-02-01T19:36:55.633Z,100308.35
2024-02-01T19:39:27.507Z,100315.63
2024-02-01T19:41:54.318Z,100319.60
2024-02-01T19:44:21.359Z,100318.99
2024-02-01T19:46:48.069Z,100314.36
2024-02-01T19:49:14.909Z,100315.50
2024-02-01T19:51:42.223Z,100328.92
2024-02-01T19:54:09.770Z,100331.23
2024-02-01T19:56:36.658Z,100326.67
2024-02-01T19:59:03.581Z,100334.33
2024-02-01T20:01:34.633Z,100341.86
2024-02-01T20:04:04.261Z,100349.30
2024-02-01T20:06:33.691Z,100351.49
2024-02-01T20:09:02.815Z,100352.55
2024-02-01T20:11:30.837Z,100356.95
2024-02-01T20:14:00.846Z,100359.63
2024-02-01T20:16:28.454Z,100363.91
2024-02-01T20:18:56.250Z,100369.20
2024-02-01T20:21:23.440Z,100372.88
2024-02-01T20:23:50.730Z,100374.89
2024-02-01T20:26:17.864Z,100379.55
2024-02-01T20:28:54.867Z,100381.88
2024-02-01T20:31:25.949Z,100387.95
2024-02-01T20:33:54.770Z,100392.36
2024-02-01T20:36:55.564Z,100387.67
2024-02-01T20:39:29.068Z,100391.52
2024-02-01T20:41:59.256Z,100391.10
2024-02-01T20:44:33.959Z,100388.21
2024-02-01T20:47:08.654Z,100390.87
2024-02-01T20:49:35.725Z,100397.71
2024-02-01T20:52:05.684Z,100393.52
2024-02-01T20:54:34.529Z,100399.30
2024-02-01T20:57:13.886Z,100400.69
2024-02-01T20:59:48.927Z,100409.91
2024-02-01T21:02:46.798Z,100410.51
2024-02-01T21:05:13.569Z,100408.91
2024-02-01T21:07:40.674Z,100407.32
2024-02-01T21:10:16.461Z,100400.15
2024-02-01T21:13:02.176Z,100417.19
2024-02-01T21:15:31.509Z,100418.42
2024-02-01T21:18:00.075Z,100423.23
2024-02-01T21:20:38.491Z,100427.77
2024-02-01T21:23:15.874Z,100427.22
2024-02-01T21:26:14.646Z,100425.66
2024-02-01T21:28:43.187Z,100430.02
2024-02-01T21:31:56.324Z,100430.08
2024-02-01T21:34:26.736Z,100433.27
2024-02-01T21:36:59.190Z,100425.70
2024-02-01T21:39:52.595Z,100429.59
2024-02-01T21:42:28.761Z,100435.46
2024-02-01T21:44:58.900Z,100439.21
2024-02-01T21:47:25.531Z,100429.05
2024-02-01T21:49:52.410Z,100444.46
2024-02-01T21:52:19.792Z,100447.05
2024-02-01T21:54:46.892Z,100447.73
2024-02-01T21:57:13.605Z,100456.71
2024-02-01T21:59:40.926Z,100463.49
2024-02-01T22:02:08.273Z,100461.72
2024-02-01T22:04:36.165Z,100457.92
2024-02-01T22:07:03.975Z,100460.05
2024-02-01T22:09:31.243Z,100462.98
2024-02-01T22:11:58.426Z,100464.70
2024-02-01T22:14:25.066Z,100463.98
2024-02-01T22:16:51.921Z,100468.83
2024-02-01T22:19:18.526Z,100474.77
2024-02-01T22:21:45.315Z,100468.61
2024-02-01T22:24:12.013Z,100467.95
2024-02-01T22:26:38.801Z,100468.63
2024-02-01T22:29:05.441Z,100472.34
2024-02-01T22:31:32.541Z,100476.04
2024-02-01T22:33:59.448Z,100480.85
2024-02-01T22:36:26.366Z,100480.14
2024-02-01T22:38:53.104Z,100477.92
2024-02-01T22:41:20.433Z,100478.72
2024-02-01T22:43:47.091Z,100471.41
2024-02-01T22:46:13.740Z,100477.92
2024-02-01T22:48:41.079Z,100476.80
2024-02-01T22:51:08.076Z,100476.17
2024-02-01T22:53:34.804Z,100473.86
2024-02-01T22:56:01.510Z,100474.60
2024-02-01T22:58:28.612Z,100472.73
2024-02-01T23:00:55.371Z,100477.46
2024-02-01T23:03:22.202Z,100474.42
2024-02-01T23:05:49.043Z,100478.91
2024-02-01T23:08:15.971Z,100483.63
2024-02-01T23:10:42.600Z,100489.34
2024-02-01T23:13:09.240Z,100499.17
2024-02-01T23:15:35.895Z,100507.68
2024-02-01T23:18:03.937Z,100509.36
2024-02-01T23:20:31.179Z,100508.24
2024-02-01T23:22:58.226Z,100511.71
2024-02-01T23:25:24.917Z,100509.45
2024-02-01T23:27:51.607Z,100504.20
2024-02-01T23:30:18.350Z,100507.23
2024-02-01T23:32:45.216Z,100514.92
2024-02-01T23:35:11.984Z,100513.60
2024-02-01T23:37:38.612Z,100510.29
2024-02-01T23:40:05.873Z,100508.33
2024-02-01T23:42:32.704Z,100509.24
2024-02-01T23:44:59.577Z,100510.68
2024-02-01T23:47:26.461Z,100511.20
2024-02-01T23:49:53.354Z,100505.66
2024-02-01T23:52:20.108Z,100504.48
2024-02-01T23:54:47.008Z,100506.98
2024-02-01T23:57:14.087Z,100507.11
2024-02-01T23:59:40.710Z,100506.69
